Time;durP1;ratioP1;P1;durP2;ratioP2;P2;SDS_P1;SDS_P2;PMS_P1;PMS_P2;Temp;Humidity;BMP_temperature;BMP_pressure;BME280_temperature;BME280_humidity;BME280_pressure;Samples;Min_cycle;Max_cycle;Signal;HPM_P1;HPM_P2
2023/01/01 00:02:03;;;;;;;10.60;4.63;;;;;;;;;;5058448;28;20032;-78
2023/01/01 00:04:30;;;;;;;11.48;4.90;;;;;;;;;;5058388;28;20115;-77
2023/01/01 00:06:56;;;;;;;9.18;5.18;;;;;;;;;;5060203;28;20028;-78
2023/01/01 00:12:05;;;;;;;11.70;5.22;;;;;;;;;;5060632;28;20035;-78
2023/01/01 00:14:30;;;;;;;14.63;5.50;;;;;;;;;;5058411;28;20392;-77
2023/01/01 00:16:56;;;;;;;12.20;5.20;;;;;;;;;;5055711;28;20036;-78
2023/01/01 00:19:21;;;;;;;11.82;5.13;;;;;;;;;;5057682;28;20039;-78
2023/01/01 00:21:47;;;;;;;12.63;5.25;;;;;;;;;;5062547;28;20105;-78
2023/01/01 00:24:12;;;;;;;11.05;4.72;;;;;;;;;;5064197;28;20032;-78
2023/01/01 00:26:37;;;;;;;9.90;4.93;;;;;;;;;;5056258;28;20075;-77
2023/01/01 00:29:04;;;;;;;9.85;4.03;;;;;;;;;;5059478;28;20106;-78
2023/01/01 00:31:29;;;;;;;9.43;4.13;;;;;;;;;;5057598;28;20036;-78
2023/01/01 00:33:55;;;;;;;9.07;4.15;;;;;;;;;;5061730;28;20400;-77
2023/01/01 00:36:23;;;;;;;9.45;3.40;;;;;;;;;;5058988;28;20102;-77
2023/01/01 00:38:48;;;;;;;10.20;3.72;;;;;;;;;;5072113;28;20043;-77
2023/01/01 00:41:15;;;;;;;5.63;3.53;;;;;;;;;;5070063;28;20032;-77
2023/01/01 00:43:41;;;;;;;10.38;3.70;;;;;;;;;;5059315;28;20032;-78
2023/01/01 00:46:07;;;;;;;9.20;3.20;;;;;;;;;;5051950;28;20064;-78
2023/01/01 00:48:33;;;;;;;7.20;2.92;;;;;;;;;;5062208;28;20437;-78
2023/01/01 00:50:58;;;;;;;9.82;2.83;;;;;;;;;;5062879;28;20048;-78
2023/01/01 00:53:24;;;;;;;5.97;2.70;;;;;;;;;;5062224;28;20427;-77
2023/01/01 00:55:50;;;;;;;13.40;7.07;;;;;;;;;;5063240;28;20492;-78
2023/01/01 00:58:17;;;;;;;8.80;2.72;;;;;;;;;;5063203;28;20024;-77
2023/01/01 01:00:43;;;;;;;4.10;2.10;;;;;;;;;;5054781;28;20039;-78
2023/01/01 01:03:26;;;;;;;5.30;2.30;;;;;;;;;;5059599;28;20032;-77
2023/01/01 01:06:07;;;;;;;9.55;1.83;;;;;;;;;;5057794;28;20400;-78
2023/01/01 01:08:34;;;;;;;6.65;2.13;;;;;;;;;;5056551;28;20024;-78
2023/01/01 01:11:12;;;;;;;8.05;2.40;;;;;;;;;;5060913;28;20055;-78
2023/01/01 01:13:39;;;;;;;7.95;2.42;;;;;;;;;;5061952;28;20125;-78
2023/01/01 01:16:18;;;;;;;10.80;2.17;;;;;;;;;;5060838;28;20035;-77
2023/01/01 01:18:44;;;;;;;5.90;1.85;;;;;;;;;;5056545;28;20032;-78
2023/01/01 01:21:13;;;;;;;7.97;1.90;;;;;;;;;;5062187;28;20032;-78
2023/01/01 01:23:38;;;;;;;9.20;2.38;;;;;;;;;;5058827;28;20024;-78
2023/01/01 01:26:18;;;;;;;9.65;2.00;;;;;;;;;;5061467;28;20531;-78
2023/01/01 01:28:44;;;;;;;7.45;1.95;;;;;;;;;;5054837;28;20065;-78
2023/01/01 01:31:11;;;;;;;7.20;2.30;;;;;;;;;;5057271;28;20138;-78
2023/01/01 01:33:37;;;;;;;6.50;1.67;;;;;;;;;;5060877;28;20477;-79
2023/01/01 01:36:03;;;;;;;7.03;1.60;;;;;;;;;;5058183;28;20024;-77
2023/01/01 01:38:29;;;;;;;8.05;1.63;;;;;;;;;;5058432;28;20549;-78
2023/01/01 01:40:54;;;;;;;4.63;2.20;;;;;;;;;;5063469;28;20111;-78
2023/01/01 01:43:24;;;;;;;5.53;1.50;;;;;;;;;;5067410;28;20062;-78
2023/01/01 01:45:54;;;;;;;6.97;1.60;;;;;;;;;;5066905;28;20484;-77
2023/01/01 01:48:20;;;;;;;5.60;1.70;;;;;;;;;;5068922;28;20036;-78
2023/01/01 01:50:47;;;;;;;5.07;2.03;;;;;;;;;;5069946;28;20032;-77
2023/01/01 01:53:23;;;;;;;7.47;1.60;;;;;;;;;;5061805;28;20500;-78
2023/01/01 01:56:00;;;;;;;7.15;1.90;;;;;;;;;;5066388;28;20025;-78
2023/01/01 01:58:28;;;;;;;9.50;2.42;;;;;;;;;;5067964;28;20434;-78
2023/01/01 02:00:54;;;;;;;6.88;1.77;;;;;;;;;;5063488;28;20128;-77
2023/01/01 02:03:31;;;;;;;8.50;2.00;;;;;;;;;;5065019;28;20111;-77
2023/01/01 02:05:57;;;;;;;7.00;1.65;;;;;;;;;;5068475;28;20087;-77
2023/01/01 02:08:24;;;;;;;5.40;2.10;;;;;;;;;;5070184;28;20107;-78
2023/01/01 02:10:49;;;;;;;13.38;2.10;;;;;;;;;;5061076;28;20396;-78
2023/01/01 02:13:14;;;;;;;8.95;2.00;;;;;;;;;;5073797;28;20104;-78
2023/01/01 02:15:49;;;;;;;4.65;1.60;;;;;;;;;;5069603;28;20029;-78
2023/01/01 02:18:20;;;;;;;3.88;1.50;;;;;;;;;;5060666;28;20455;-78
2023/01/01 02:20:58;;;;;;;6.63;1.92;;;;;;;;;;5055594;28;20039;-78
2023/01/01 02:23:48;;;;;;;6.60;1.85;;;;;;;;;;5058268;28;20099;-77
2023/01/01 02:26:39;;;;;;;5.85;1.73;;;;;;;;;;5062184;28;20419;-77
2023/01/01 02:29:29;;;;;;;5.45;1.90;;;;;;;;;;5062055;28;20517;-77
2023/01/01 02:32:05;;;;;;;5.25;1.60;;;;;;;;;;5065943;28;20107;-78
2023/01/01 02:34:37;;;;;;;3.60;1.38;;;;;;;;;;5066893;28;20395;-77
2023/01/01 02:37:05;;;;;;;5.53;1.52;;;;;;;;;;5065268;28;20035;-77
2023/01/01 02:39:33;;;;;;;4.20;1.58;;;;;;;;;;5063305;28;20393;-77
2023/01/01 02:42:00;;;;;;;8.18;1.63;;;;;;;;;;5064851;28;20040;-77
2023/01/01 02:44:28;;;;;;;5.75;1.33;;;;;;;;;;5061783;28;20053;-77
2023/01/01 02:46:53;;;;;;;3.83;1.50;;;;;;;;;;5063335;28;20465;-77
2023/01/01 02:49:18;;;;;;;5.00;1.77;;;;;;;;;;5062959;28;20057;-77
2023/01/01 02:52:01;;;;;;;4.30;1.50;;;;;;;;;;5062478;28;20047;-77
2023/01/01 02:54:36;;;;;;;3.90;1.52;;;;;;;;;;5064395;28;20024;-77
2023/01/01 02:57:15;;;;;;;5.55;1.60;;;;;;;;;;5062776;28;20032;-78
2023/01/01 03:03:00;;;;;;;5.13;1.52;;;;;;;;;;5068221;28;20027;-77
2023/01/01 03:08:45;;;;;;;5.25;1.90;;;;;;;;;;5062252;28;20075;-77
2023/01/01 03:11:15;;;;;;;11.65;1.40;;;;;;;;;;5060020;28;20025;-77
2023/01/01 03:13:48;;;;;;;5.28;1.63;;;;;;;;;;5060035;28;20032;-77
2023/01/01 03:16:37;;;;;;;5.25;1.40;;;;;;;;;;5061955;28;20031;-77
2023/01/01 03:19:18;;;;;;;4.15;1.40;;;;;;;;;;5056800;28;20024;-78
2023/01/01 03:21:48;;;;;;;4.28;1.30;;;;;;;;;;5063257;28;20389;-77
2023/01/01 03:24:30;;;;;;;4.05;1.42;;;;;;;;;;5072293;28;20564;-77
2023/01/01 03:27:01;;;;;;;4.60;1.38;;;;;;;;;;5061810;28;20174;-77
2023/01/01 03:29:30;;;;;;;4.57;1.40;;;;;;;;;;5060724;28;20036;-77
2023/01/01 03:31:58;;;;;;;8.85;1.50;;;;;;;;;;5063977;28;20044;-77
2023/01/01 03:34:46;;;;;;;3.63;1.20;;;;;;;;;;5069176;28;20481;-77
2023/01/01 03:37:16;;;;;;;5.70;1.38;;;;;;;;;;5066713;28;20037;-77
2023/01/01 03:39:51;;;;;;;6.55;1.50;;;;;;;;;;5066594;28;20026;-78
2023/01/01 03:42:19;;;;;;;6.25;1.35;;;;;;;;;;5066808;28;21007;-78
2023/01/01 03:44:46;;;;;;;3.85;1.30;;;;;;;;;;5066863;28;20021;-77
2023/01/01 03:47:12;;;;;;;8.80;1.33;;;;;;;;;;5064209;28;20021;-77
2023/01/01 03:49:38;;;;;;;5.95;1.50;;;;;;;;;;5064492;28;20048;-78
2023/01/01 03:52:22;;;;;;;4.88;1.50;;;;;;;;;;5059658;28;20036;-77
2023/01/01 03:54:53;;;;;;;3.40;1.15;;;;;;;;;;5056953;28;20032;-78
2023/01/01 03:57:43;;;;;;;4.18;1.23;;;;;;;;;;5059625;28;20565;-78
2023/01/01 04:00:15;;;;;;;5.70;1.55;;;;;;;;;;5076082;28;20795;-78
2023/01/01 04:02:59;;;;;;;4.68;1.20;;;;;;;;;;5056056;28;20024;-77
2023/01/01 04:05:26;;;;;;;7.00;1.30;;;;;;;;;;5055731;28;20456;-77
2023/01/01 04:07:52;;;;;;;2.92;1.20;;;;;;;;;;5058018;28;20024;-77
2023/01/01 04:10:18;;;;;;;4.90;1.52;;;;;;;;;;5058440;28;20111;-78
2023/01/01 04:12:50;;;;;;;7.18;1.45;;;;;;;;;;5060311;28;20024;-77
2023/01/01 04:15:17;;;;;;;5.00;1.60;;;;;;;;;;5058300;28;20117;-77
2023/01/01 04:17:43;;;;;;;4.70;1.30;;;;;;;;;;5060317;28;20029;-77
2023/01/01 04:20:09;;;;;;;6.57;1.45;;;;;;;;;;5055627;28;20028;-77
2023/01/01 04:22:35;;;;;;;3.25;1.27;;;;;;;;;;5056868;28;21697;-78
2023/01/01 04:25:00;;;;;;;6.00;1.27;;;;;;;;;;5060326;28;20426;-77
2023/01/01 04:27:25;;;;;;;3.53;1.10;;;;;;;;;;5057210;28;20618;-78
2023/01/01 04:29:51;;;;;;;4.82;1.50;;;;;;;;;;5059160;28;20044;-77
2023/01/01 04:32:16;;;;;;;4.88;1.33;;;;;;;;;;5060454;28;20020;-78
2023/01/01 04:34:42;;;;;;;4.72;1.25;;;;;;;;;;5059402;28;20167;-77
2023/01/01 04:37:07;;;;;;;8.52;1.50;;;;;;;;;;5055188;28;20043;-78
2023/01/01 04:39:32;;;;;;;6.85;1.35;;;;;;;;;;5060917;28;20033;-77
2023/01/01 04:41:58;;;;;;;4.72;1.38;;;;;;;;;;5057426;28;20020;-77
2023/01/01 04:44:23;;;;;;;5.65;1.30;;;;;;;;;;5058831;28;20461;-77
2023/01/01 04:46:48;;;;;;;4.72;1.20;;;;;;;;;;5058902;28;20056;-78
2023/01/01 04:49:14;;;;;;;3.97;1.20;;;;;;;;;;5060997;28;20122;-77
2023/01/01 04:51:39;;;;;;;5.13;1.30;;;;;;;;;;5059303;28;20883;-77
2023/01/01 04:54:05;;;;;;;2.95;1.30;;;;;;;;;;5059105;28;20508;-77
2023/01/01 04:56:30;;;;;;;5.88;1.33;;;;;;;;;;5055093;28;20563;-78
2023/01/01 04:58:57;;;;;;;7.35;1.77;;;;;;;;;;5053945;28;20393;-77
2023/01/01 05:01:25;;;;;;;6.60;1.42;;;;;;;;;;5053264;28;20033;-77
2023/01/01 05:03:51;;;;;;;5.90;2.50;;;;;;;;;;5057226;28;20028;-77
2023/01/01 05:06:17;;;;;;;5.63;1.50;;;;;;;;;;5054442;28;20027;-78
2023/01/01 05:08:45;;;;;;;8.75;2.78;;;;;;;;;;5056349;28;20496;-77
2023/01/01 05:11:16;;;;;;;5.47;1.25;;;;;;;;;;5059869;28;20119;-78
2023/01/01 05:13:43;;;;;;;6.13;1.42;;;;;;;;;;5054819;28;20467;-77
2023/01/01 05:16:12;;;;;;;4.53;1.50;;;;;;;;;;5054085;28;20029;-77
2023/01/01 05:18:38;;;;;;;6.03;1.40;;;;;;;;;;5058974;28;20040;-77
2023/01/01 05:21:10;;;;;;;5.32;1.23;;;;;;;;;;5063055;28;20428;-78
2023/01/01 05:23:36;;;;;;;4.80;1.30;;;;;;;;;;5058724;28;20039;-77
2023/01/01 05:26:16;;;;;;;6.95;1.65;;;;;;;;;;5059801;28;20040;-77
2023/01/01 05:28:42;;;;;;;5.53;1.48;;;;;;;;;;5063596;28;20044;-77
2023/01/01 05:31:10;;;;;;;3.88;1.40;;;;;;;;;;5061799;28;20465;-77
2023/01/01 05:33:35;;;;;;;5.47;1.40;;;;;;;;;;5061025;28;20127;-77
2023/01/01 05:36:02;;;;;;;5.50;1.50;;;;;;;;;;5058711;28;20349;-77
2023/01/01 05:38:28;;;;;;;2.92;1.15;;;;;;;;;;5057581;28;20039;-77
2023/01/01 05:40:53;;;;;;;6.40;1.40;;;;;;;;;;5062227;28;20024;-77
2023/01/01 05:43:19;;;;;;;3.83;1.20;;;;;;;;;;5060568;28;20032;-77
2023/01/01 05:45:44;;;;;;;4.75;1.10;;;;;;;;;;5060674;28;20043;-77
2023/01/01 05:48:10;;;;;;;4.68;1.45;;;;;;;;;;5061847;28;20032;-77
2023/01/01 05:50:35;;;;;;;4.72;1.50;;;;;;;;;;5060485;28;20044;-77
2023/01/01 05:53:01;;;;;;;3.17;1.35;;;;;;;;;;5060959;28;20052;-77
2023/01/01 05:55:27;;;;;;;5.35;1.50;;;;;;;;;;5063198;28;20636;-78
2023/01/01 05:57:52;;;;;;;3.83;1.23;;;;;;;;;;5058785;28;20055;-78
2023/01/01 06:00:17;;;;;;;5.20;1.40;;;;;;;;;;5060493;28;20112;-77
2023/01/01 06:02:43;;;;;;;7.25;1.42;;;;;;;;;;5056881;28;20033;-78
2023/01/01 06:05:08;;;;;;;7.97;1.55;;;;;;;;;;5057317;28;20024;-78
2023/01/01 06:07:34;;;;;;;4.55;1.40;;;;;;;;;;5058726;28;20058;-77
2023/01/01 06:09:59;;;;;;;3.20;1.15;;;;;;;;;;5062069;28;20086;-78
2023/01/01 06:12:24;;;;;;;5.25;1.30;;;;;;;;;;5059534;28;20424;-77
2023/01/01 06:14:50;;;;;;;4.97;1.30;;;;;;;;;;5057574;28;20028;-78
2023/01/01 06:17:15;;;;;;;6.07;1.40;;;;;;;;;;5059509;28;20024;-77
2023/01/01 06:19:40;;;;;;;3.65;0.90;;;;;;;;;;5061376;28;20519;-78
2023/01/01 06:22:06;;;;;;;4.40;0.80;;;;;;;;;;5057541;28;20037;-77
2023/01/01 06:24:31;;;;;;;2.50;0.90;;;;;;;;;;5055880;28;20043;-78
2023/01/01 06:26:56;;;;;;;2.75;0.68;;;;;;;;;;5061965;28;20110;-77
2023/01/01 06:29:22;;;;;;;2.38;0.45;;;;;;;;;;5060716;28;20072;-77
2023/01/01 06:31:47;;;;;;;3.17;0.57;;;;;;;;;;5057505;28;20039;-78
2023/01/01 06:34:14;;;;;;;4.63;0.70;;;;;;;;;;5064165;28;20076;-77
2023/01/01 06:36:39;;;;;;;2.72;0.52;;;;;;;;;;5057700;28;20098;-77
2023/01/01 06:39:05;;;;;;;1.65;0.52;;;;;;;;;;5055537;28;20023;-77
2023/01/01 06:41:30;;;;;;;2.47;0.60;;;;;;;;;;5061166;28;20407;-77
2023/01/01 06:43:56;;;;;;;1.48;0.60;;;;;;;;;;5058200;28;20032;-77
2023/01/01 06:46:33;;;;;;;1.42;0.50;;;;;;;;;;5057942;28;20028;-77
2023/01/01 06:49:01;;;;;;;1.73;0.50;;;;;;;;;;5061398;28;20029;-77
2023/01/01 06:51:30;;;;;;;2.97;0.70;;;;;;;;;;5057022;28;20016;-77
2023/01/01 06:53:58;;;;;;;3.95;0.50;;;;;;;;;;5055217;28;20600;-77
2023/01/01 06:56:24;;;;;;;2.13;0.50;;;;;;;;;;5058171;28;20029;-77
2023/01/01 06:58:50;;;;;;;3.17;0.50;;;;;;;;;;5060688;28;20016;-77
2023/01/01 07:01:18;;;;;;;1.77;0.40;;;;;;;;;;5058710;28;20025;-77
2023/01/01 07:03:48;;;;;;;2.72;0.50;;;;;;;;;;5061586;28;20029;-77
2023/01/01 07:06:13;;;;;;;1.67;0.40;;;;;;;;;;5060047;28;20021;-77
2023/01/01 07:08:39;;;;;;;3.85;0.70;;;;;;;;;;5065282;28;20028;-77
2023/01/01 07:11:04;;;;;;;2.85;0.60;;;;;;;;;;5064061;28;20461;-77
2023/01/01 07:13:30;;;;;;;2.85;0.45;;;;;;;;;;5063933;28;20458;-77
2023/01/01 07:15:56;;;;;;;1.20;0.47;;;;;;;;;;5066222;28;20527;-77
2023/01/01 07:18:22;;;;;;;1.75;0.55;;;;;;;;;;5060099;28;20456;-78
2023/01/01 07:21:25;;;;;;;2.17;0.98;;;;;;;;;;5062856;28;20028;-77
2023/01/01 07:23:50;;;;;;;4.30;0.60;;;;;;;;;;5061021;28;20087;-77
2023/01/01 07:26:15;;;;;;;2.17;0.65;;;;;;;;;;5065249;28;20040;-77
2023/01/01 07:28:41;;;;;;;2.15;0.70;;;;;;;;;;5063843;28;20052;-77
2023/01/01 07:31:07;;;;;;;1.42;0.45;;;;;;;;;;5067119;28;20040;-77
2023/01/01 07:33:33;;;;;;;2.95;0.75;;;;;;;;;;5061014;28;20123;-77
2023/01/01 07:35:58;;;;;;;3.42;0.70;;;;;;;;;;5060810;28;20107;-77
2023/01/01 07:38:23;;;;;;;3.38;0.65;;;;;;;;;;5061343;28;20055;-78
2023/01/01 07:40:49;;;;;;;3.20;0.60;;;;;;;;;;5059467;28;20017;-77
2023/01/01 07:43:14;;;;;;;2.38;0.60;;;;;;;;;;5057959;28;20384;-78
2023/01/01 07:45:40;;;;;;;2.45;0.43;;;;;;;;;;5059595;28;20033;-77
2023/01/01 07:48:08;;;;;;;3.03;0.52;;;;;;;;;;5058945;28;20024;-77
2023/01/01 07:50:34;;;;;;;1.90;0.63;;;;;;;;;;5061733;28;20097;-77
2023/01/01 07:52:59;;;;;;;2.10;0.60;;;;;;;;;;5060326;28;20028;-77
2023/01/01 07:55:25;;;;;;;2.85;0.50;;;;;;;;;;5062885;28;20530;-77
2023/01/01 07:57:51;;;;;;;1.88;0.50;;;;;;;;;;5062533;28;20085;-77
2023/01/01 08:00:19;;;;;;;5.35;1.10;;;;;;;;;;5055979;28;20384;-77
2023/01/01 08:02:44;;;;;;;2.95;0.65;;;;;;;;;;5058384;28;20476;-77
2023/01/01 08:05:10;;;;;;;0.85;0.30;;;;;;;;;;5057513;28;20110;-77
2023/01/01 08:07:35;;;;;;;2.13;0.50;;;;;;;;;;5056222;28;21475;-77
2023/01/01 08:10:02;;;;;;;2.05;0.55;;;;;;;;;;5057542;28;20032;-77
2023/01/01 08:12:28;;;;;;;2.15;0.47;;;;;;;;;;5060934;28;20047;-77
2023/01/01 08:14:53;;;;;;;4.82;0.93;;;;;;;;;;5058713;28;20024;-77
2023/01/01 08:17:19;;;;;;;4.80;0.60;;;;;;;;;;5061923;28;20026;-77
2023/01/01 08:19:45;;;;;;;2.60;0.65;;;;;;;;;;5060683;28;20025;-77
2023/01/01 08:22:11;;;;;;;2.85;0.70;;;;;;;;;;5063943;28;20028;-77
2023/01/01 08:24:36;;;;;;;3.17;0.88;;;;;;;;;;5061053;28;20029;-77
2023/01/01 08:27:01;;;;;;;6.53;0.80;;;;;;;;;;5058745;28;20024;-77
2023/01/01 08:29:27;;;;;;;4.07;0.70;;;;;;;;;;5064767;28;20948;-78
2023/01/01 08:31:52;;;;;;;4.80;0.80;;;;;;;;;;5062153;28;20036;-77
2023/01/01 08:34:18;;;;;;;2.05;0.60;;;;;;;;;;5065286;28;20024;-77
2023/01/01 08:36:43;;;;;;;2.17;0.70;;;;;;;;;;5061176;28;20119;-77
2023/01/01 08:39:08;;;;;;;5.22;1.15;;;;;;;;;;5054219;28;20032;-77
2023/01/01 08:41:34;;;;;;;2.88;0.57;;;;;;;;;;5071489;28;20225;-78
2023/01/01 08:44:00;;;;;;;4.43;0.75;;;;;;;;;;5056899;28;20535;-78
2023/01/01 08:46:26;;;;;;;5.03;0.90;;;;;;;;;;5058315;28;20123;-77
2023/01/01 08:48:51;;;;;;;3.30;0.50;;;;;;;;;;5059399;28;20048;-77
2023/01/01 08:51:17;;;;;;;4.65;0.85;;;;;;;;;;5061698;28;20059;-78
2023/01/01 08:53:42;;;;;;;3.60;0.70;;;;;;;;;;5060938;28;20036;-78
2023/01/01 08:56:10;;;;;;;6.32;0.82;;;;;;;;;;5074733;28;20120;-78
2023/01/01 08:58:37;;;;;;;4.70;1.00;;;;;;;;;;5061518;28;20492;-77
2023/01/01 09:01:04;;;;;;;4.30;0.70;;;;;;;;;;5059503;28;20033;-77
2023/01/01 09:03:29;;;;;;;3.65;0.50;;;;;;;;;;5055515;28;20043;-77
2023/01/01 09:05:55;;;;;;;6.22;0.77;;;;;;;;;;5057225;28;20028;-78
2023/01/01 09:08:21;;;;;;;5.13;0.75;;;;;;;;;;5056646;28;20055;-78
2023/01/01 09:10:46;;;;;;;4.30;0.60;;;;;;;;;;5058134;28;20043;-77
2023/01/01 09:13:14;;;;;;;4.40;1.05;;;;;;;;;;5059948;28;20400;-78
2023/01/01 09:15:41;;;;;;;4.93;0.82;;;;;;;;;;5054985;28;20796;-77
2023/01/01 09:18:07;;;;;;;2.78;0.60;;;;;;;;;;5055703;28;20041;-78
2023/01/01 09:20:33;;;;;;;3.45;0.73;;;;;;;;;;5059840;28;20039;-77
2023/01/01 09:22:58;;;;;;;4.03;1.20;;;;;;;;;;5059456;28;20111;-78
2023/01/01 09:25:24;;;;;;;4.18;1.15;;;;;;;;;;5055045;28;20042;-77
2023/01/01 09:27:58;;;;;;;4.35;0.95;;;;;;;;;;5057352;28;20400;-78
2023/01/01 09:30:24;;;;;;;5.97;1.05;;;;;;;;;;5053514;28;20049;-77
2023/01/01 09:32:49;;;;;;;4.07;1.00;;;;;;;;;;5057829;28;20085;-78
2023/01/01 09:35:15;;;;;;;3.65;0.80;;;;;;;;;;5056208;28;20525;-78
2023/01/01 09:37:40;;;;;;;4.25;0.70;;;;;;;;;;5061481;28;20059;-78
2023/01/01 09:40:07;;;;;;;4.82;1.10;;;;;;;;;;5055456;28;20032;-77
2023/01/01 09:42:41;;;;;;;3.65;0.95;;;;;;;;;;5056909;28;20551;-78
2023/01/01 09:45:18;;;;;;;5.50;1.10;;;;;;;;;;5056746;28;20086;-78
2023/01/01 09:47:50;;;;;;;3.78;1.20;;;;;;;;;;5057517;28;20066;-78
2023/01/01 09:50:22;;;;;;;6.15;1.00;;;;;;;;;;5052469;28;20028;-78
2023/01/01 09:52:59;;;;;;;4.38;1.10;;;;;;;;;;5055422;28;20504;-78
2023/01/01 09:55:33;;;;;;;4.90;1.30;;;;;;;;;;5057929;28;20114;-78
2023/01/01 09:57:58;;;;;;;4.20;0.90;;;;;;;;;;5057850;28;20069;-78
2023/01/01 10:00:24;;;;;;;4.97;0.90;;;;;;;;;;5056404;28;20028;-77
2023/01/01 10:03:17;;;;;;;6.55;1.15;;;;;;;;;;5057975;28;20392;-78
2023/01/01 10:05:48;;;;;;;3.55;0.80;;;;;;;;;;5065486;28;20263;-77
2023/01/01 10:08:35;;;;;;;4.15;1.30;;;;;;;;;;5065609;28;20028;-77
2023/01/01 10:11:20;;;;;;;5.43;1.33;;;;;;;;;;5075753;28;20391;-77
2023/01/01 10:13:45;;;;;;;2.85;0.80;;;;;;;;;;5062897;28;20025;-78
2023/01/01 10:16:20;;;;;;;5.13;0.90;;;;;;;;;;5070371;28;20392;-78
2023/01/01 10:18:50;;;;;;;3.00;0.88;;;;;;;;;;5079308;28;20062;-78
2023/01/01 10:21:27;;;;;;;3.88;0.80;;;;;;;;;;5069633;28;20036;-78
2023/01/01 10:24:01;;;;;;;3.03;0.80;;;;;;;;;;5069101;28;20036;-78
2023/01/01 10:26:30;;;;;;;4.40;0.88;;;;;;;;;;5068030;28;20029;-78
2023/01/01 10:29:12;;;;;;;4.82;1.13;;;;;;;;;;5065632;28;20044;-78
2023/01/01 10:31:44;;;;;;;2.53;1.00;;;;;;;;;;5068367;28;20166;-77
2023/01/01 10:34:24;;;;;;;4.07;1.02;;;;;;;;;;5068215;28;20469;-78
2023/01/01 10:36:53;;;;;;;2.47;0.98;;;;;;;;;;5057358;28;20128;-78
2023/01/01 10:39:18;;;;;;;5.93;1.25;;;;;;;;;;5062173;28;20032;-78
2023/01/01 10:41:44;;;;;;;3.75;1.27;;;;;;;;;;5055456;28;20028;-78
2023/01/01 10:44:12;;;;;;;3.47;1.10;;;;;;;;;;5067598;28;20040;-77
2023/01/01 10:46:43;;;;;;;2.88;1.00;;;;;;;;;;5064004;28;20020;-78
2023/01/01 10:49:11;;;;;;;3.45;1.30;;;;;;;;;;5061425;28;20029;-77
2023/01/01 10:51:48;;;;;;;5.35;1.58;;;;;;;;;;5067381;28;20408;-78
2023/01/01 10:54:23;;;;;;;5.18;1.50;;;;;;;;;;5063060;28;20111;-77
2023/01/01 10:56:48;;;;;;;3.30;1.75;;;;;;;;;;5061891;28;20388;-78
2023/01/01 10:59:37;;;;;;;5.05;1.67;;;;;;;;;;5065914;28;20037;-77
2023/01/01 11:02:20;;;;;;;4.90;2.10;;;;;;;;;;5063860;28;20487;-78
2023/01/01 11:04:46;;;;;;;7.13;2.10;;;;;;;;;;5062215;28;20036;-77
2023/01/01 11:07:28;;;;;;;7.50;2.15;;;;;;;;;;5064093;28;20074;-77
2023/01/01 11:09:58;;;;;;;5.25;1.98;;;;;;;;;;5059931;28;20048;-78
2023/01/01 11:12:28;;;;;;;4.50;1.80;;;;;;;;;;5059132;28;20515;-78
2023/01/01 11:14:56;;;;;;;6.72;2.40;;;;;;;;;;5065804;28;20522;-78
2023/01/01 11:17:30;;;;;;;7.97;2.60;;;;;;;;;;5061181;28;20031;-78
2023/01/01 11:19:57;;;;;;;7.78;2.70;;;;;;;;;;5063050;28;20032;-78
2023/01/01 11:22:38;;;;;;;6.22;2.63;;;;;;;;;;5064194;28;20033;-77
2023/01/01 11:25:16;;;;;;;5.88;2.88;;;;;;;;;;5062152;28;20559;-77
2023/01/01 11:27:41;;;;;;;6.50;2.38;;;;;;;;;;5058617;28;20032;-78
2023/01/01 11:30:25;;;;;;;3.95;2.05;;;;;;;;;;5062621;28;20053;-78
2023/01/01 11:32:56;;;;;;;11.52;2.47;;;;;;;;;;5063967;28;20020;-78
2023/01/01 11:35:24;;;;;;;7.30;2.42;;;;;;;;;;5064901;28;20507;-78
2023/01/01 11:37:52;;;;;;;5.32;2.58;;;;;;;;;;5061331;28;20036;-79
2023/01/01 11:40:21;;;;;;;7.85;2.38;;;;;;;;;;5062123;28;20020;-78
2023/01/01 11:42:56;;;;;;;5.30;2.13;;;;;;;;;;5062209;28;20029;-77
2023/01/01 11:45:24;;;;;;;8.32;2.45;;;;;;;;;;5061195;28;20413;-78
2023/01/01 11:47:57;;;;;;;6.38;2.33;;;;;;;;;;5067130;28;20392;-78
2023/01/01 11:50:31;;;;;;;6.07;2.28;;;;;;;;;;5061488;28;20520;-78
2023/01/01 11:52:58;;;;;;;7.43;2.28;;;;;;;;;;5065377;28;20549;-78
2023/01/01 11:56:02;;;;;;;5.82;2.30;;;;;;;;;;5059815;28;20036;-78
2023/01/01 11:58:38;;;;;;;;;;;;;;;;;;5069712;28;20520;-78
2023/01/01 12:01:12;;;;;;;6.88;2.00;;;;;;;;;;5064880;28;20003;-78
2023/01/01 12:03:47;;;;;;;8.27;2.00;;;;;;;;;;5061025;28;20115;-78
2023/01/01 12:06:19;;;;;;;7.07;1.92;;;;;;;;;;5064398;28;20118;-78
2023/01/01 12:08:55;;;;;;;6.60;2.17;;;;;;;;;;5065277;28;20020;-78
2023/01/01 12:11:21;;;;;;;8.05;2.50;;;;;;;;;;5059351;28;20033;-78
2023/01/01 12:13:55;;;;;;;7.88;2.10;;;;;;;;;;5070718;28;20047;-78
2023/01/01 12:16:31;;;;;;;10.40;2.30;;;;;;;;;;5068644;28;20021;-78
2023/01/01 12:19:05;;;;;;;6.28;1.77;;;;;;;;;;5064251;28;20392;-78
2023/01/01 12:21:34;;;;;;;5.50;2.13;;;;;;;;;;5064915;28;20035;-78
2023/01/01 12:24:00;;;;;;;5.72;2.00;;;;;;;;;;5065363;28;20463;-78
2023/01/01 12:26:40;;;;;;;6.50;1.67;;;;;;;;;;5072282;28;20111;-79
2023/01/01 12:29:33;;;;;;;7.05;1.77;;;;;;;;;;5068432;28;20036;-78
2023/01/01 12:32:12;;;;;;;8.00;1.85;;;;;;;;;;5062146;28;20377;-78
2023/01/01 12:35:12;;;;;;;9.20;1.70;;;;;;;;;;5062028;28;20043;-78
2023/01/01 12:38:06;;;;;;;7.70;1.90;;;;;;;;;;5061121;28;22516;-79
2023/01/01 12:40:44;;;;;;;8.77;1.95;;;;;;;;;;5062842;28;20024;-78
2023/01/01 12:43:17;;;;;;;8.32;1.77;;;;;;;;;;5057547;28;20028;-78
2023/01/01 12:45:45;;;;;;;;;;;;;;;;;;5061841;28;20090;-77
2023/01/01 12:48:37;;;;;;;6.60;1.52;;;;;;;;;;5066936;28;20097;-77
2023/01/01 12:51:27;;;;;;;7.85;1.80;;;;;;;;;;5065768;28;20027;-78
2023/01/01 12:54:15;;;;;;;10.07;2.10;;;;;;;;;;5054424;28;20487;-77
2023/01/01 12:56:58;;;;;;;6.20;1.58;;;;;;;;;;5055738;28;20028;-78
2023/01/01 12:59:31;;;;;;;7.88;2.20;;;;;;;;;;5048806;28;20029;-78
2023/01/01 13:01:59;;;;;;;7.10;1.75;;;;;;;;;;5056005;28;20032;-78
2023/01/01 13:04:25;;;;;;;8.98;1.88;;;;;;;;;;5052122;28;20622;-78
2023/01/01 13:07:04;;;;;;;4.20;1.40;;;;;;;;;;5054758;28;20107;-78
2023/01/01 13:09:38;;;;;;;7.32;1.70;;;;;;;;;;5057483;28;20035;-78
2023/01/01 13:12:11;;;;;;;7.85;1.50;;;;;;;;;;5057358;28;20025;-78
2023/01/01 13:14:40;;;;;;;;;;;;;;;;;;5041570;28;20024;-78
2023/01/01 13:17:16;;;;;;;5.15;1.63;;;;;;;;;;5053905;28;19963;-78
2023/01/01 13:19:42;;;;;;;6.03;1.70;;;;;;;;;;5051010;28;20029;-78
2023/01/01 13:22:26;;;;;;;4.93;1.60;;;;;;;;;;5055406;28;20773;-78
2023/01/01 13:25:09;;;;;;;8.30;1.70;;;;;;;;;;5056213;28;20408;-78
2023/01/01 13:27:56;;;;;;;6.07;1.40;;;;;;;;;;5056062;28;20810;-78
2023/01/01 13:30:42;;;;;;;7.95;1.73;;;;;;;;;;5059344;28;20756;-78
2023/01/01 13:33:24;;;;;;;11.15;2.10;;;;;;;;;;5059534;28;20719;-78
2023/01/01 13:36:07;;;;;;;6.63;1.60;;;;;;;;;;5062408;28;20032;-78
2023/01/01 13:38:52;;;;;;;7.63;1.80;;;;;;;;;;5059563;28;20875;-78
2023/01/01 13:41:45;;;;;;;6.85;1.60;;;;;;;;;;5075350;28;20028;-78
2023/01/01 13:44:20;;;;;;;8.35;1.83;;;;;;;;;;5066749;28;20496;-78
2023/01/01 13:47:12;;;;;;;8.32;2.00;;;;;;;;;;5063159;28;20029;-78
2023/01/01 13:49:48;;;;;;;6.63;2.20;;;;;;;;;;5057418;28;20511;-78
2023/01/01 13:52:19;;;;;;;4.50;1.55;;;;;;;;;;5065396;28;20029;-78
2023/01/01 13:54:53;;;;;;;8.02;1.83;;;;;;;;;;5064576;28;20143;-78
2023/01/01 13:57:18;;;;;;;10.65;2.08;;;;;;;;;;5055402;28;20024;-78
2023/01/01 13:59:56;;;;;;;9.30;1.92;;;;;;;;;;5060977;28;20396;-79
2023/01/01 14:02:23;;;;;;;7.43;2.30;;;;;;;;;;5059598;28;20473;-79
2023/01/01 14:04:59;;;;;;;7.47;2.05;;;;;;;;;;5058539;28;20071;-78
2023/01/01 14:07:48;;;;;;;5.38;2.10;;;;;;;;;;5056071;28;20031;-78
2023/01/01 14:10:17;;;;;;;8.48;2.03;;;;;;;;;;5054060;28;20040;-78
2023/01/01 14:12:42;;;;;;;6.63;1.80;;;;;;;;;;5051818;28;20040;-78
2023/01/01 14:15:35;;;;;;;7.90;1.90;;;;;;;;;;5047316;28;20032;-78
2023/01/01 14:18:04;;;;;;;7.00;1.58;;;;;;;;;;5050069;28;20307;-78
2023/01/01 14:20:38;;;;;;;10.13;2.30;;;;;;;;;;5052363;28;20520;-78
2023/01/01 14:23:09;;;;;;;10.98;2.03;;;;;;;;;;5061769;28;20036;-78
2023/01/01 14:25:35;;;;;;;8.88;2.00;;;;;;;;;;5055956;28;20048;-78
2023/01/01 14:28:01;;;;;;;8.15;1.77;;;;;;;;;;5059773;28;20036;-78
2023/01/01 14:30:30;;;;;;;10.25;1.88;;;;;;;;;;5056197;28;20041;-78
2023/01/01 14:32:57;;;;;;;7.85;1.67;;;;;;;;;;5070948;28;20236;-78
2023/01/01 14:35:22;;;;;;;9.00;1.52;;;;;;;;;;5058963;28;20024;-78
2023/01/01 14:37:48;;;;;;;8.82;2.22;;;;;;;;;;5064371;28;20035;-78
2023/01/01 14:40:29;;;;;;;5.75;1.80;;;;;;;;;;5061183;28;20035;-78
2023/01/01 14:43:04;;;;;;;8.23;1.90;;;;;;;;;;5059725;28;20029;-78
2023/01/01 14:45:33;;;;;;;9.02;1.60;;;;;;;;;;5057643;28;20423;-78
2023/01/01 14:47:59;;;;;;;5.80;1.65;;;;;;;;;;5078175;28;20029;-78
2023/01/01 14:50:34;;;;;;;8.88;2.00;;;;;;;;;;5057240;28;20077;-78
2023/01/01 14:53:04;;;;;;;5.05;1.60;;;;;;;;;;5058082;28;20035;-78
2023/01/01 14:55:41;;;;;;;9.38;2.00;;;;;;;;;;5058247;28;20476;-78
2023/01/01 14:58:14;;;;;;;10.23;1.60;;;;;;;;;;5062739;28;20397;-78
2023/01/01 15:00:40;;;;;;;;;;;;;;;;;;5056014;28;20036;-78
2023/01/01 15:03:13;;;;;;;7.78;1.85;;;;;;;;;;5056429;28;19916;-78
2023/01/01 15:05:40;;;;;;;6.95;1.30;;;;;;;;;;5055957;28;20503;-78
2023/01/01 15:08:17;;;;;;;7.90;1.80;;;;;;;;;;5053311;28;20028;-78
2023/01/01 15:10:43;;;;;;;4.80;1.40;;;;;;;;;;5049349;28;20127;-78
2023/01/01 15:13:17;;;;;;;8.18;1.83;;;;;;;;;;5048544;28;20037;-78